createdAt,value
2023-05-14T00:00:54.711Z,89.40
2023-05-14T00:03:22.510Z,89.80
2023-05-14T00:05:50.778Z,90.10
2023-05-14T00:08:19.875Z,90.20
2023-05-14T00:10:47.623Z,90.80
2023-05-14T00:13:15.528Z,91.10
2023-05-14T00:15:43.347Z,90.90
2023-05-14T00:18:12.118Z,90.80
2023-05-14T00:20:39.943Z,91.10
2023-05-14T00:23:07.718Z,91.40
2023-05-14T00:25:37.161Z,91.70
2023-05-14T00:28:05.192Z,91.90
2023-05-14T00:30:33.081Z,91.90
2023-05-14T00:33:00.998Z,91.70
2023-05-14T00:35:28.866Z,92.00
2023-05-14T00:37:56.656Z,92.40
2023-05-14T00:40:27.359Z,92.20
2023-05-14T00:42:57.612Z,92.30
2023-05-14T00:45:25.602Z,92.40
2023-05-14T00:47:54.396Z,92.80
2023-05-14T00:50:22.557Z,92.90
2023-05-14T00:52:50.752Z,92.60
2023-05-14T00:55:20.618Z,92.50
2023-05-14T00:57:48.350Z,92.70
2023-05-14T01:00:18.604Z,92.90
2023-05-14T01:02:46.507Z,93.20
2023-05-14T01:05:14.346Z,93.10
2023-05-14T01:07:50.340Z,93.40
2023-05-14T01:10:22.262Z,93.40
2023-05-14T01:13:01.291Z,93.00
2023-05-14T01:15:34.205Z,93.30
2023-05-14T01:18:09.650Z,93.30
2023-05-14T01:20:37.964Z,92.90
2023-05-14T01:23:07.064Z,92.70
2023-05-14T01:25:35.350Z,92.70
2023-05-14T01:28:10.392Z,93.00
2023-05-14T01:30:41.395Z,93.00
2023-05-14T01:33:13.044Z,93.20
2023-05-14T01:35:41.445Z,92.90
2023-05-14T01:38:13.245Z,92.90
2023-05-14T01:40:41.849Z,92.70
2023-05-14T01:43:10.122Z,92.90
2023-05-14T01:45:38.091Z,93.20
2023-05-14T01:48:06.647Z,93.50
2023-05-14T01:50:34.467Z,93.60
2023-05-14T01:53:02.288Z,93.60
2023-05-14T01:55:31.389Z,93.40
2023-05-14T01:57:59.165Z,93.70
2023-05-14T02:00:27.260Z,93.80
2023-05-14T02:02:55.037Z,94.00
2023-05-14T02:05:22.909Z,93.60
2023-05-14T02:07:51.278Z,93.50
2023-05-14T02:10:19.075Z,93.40
2023-05-14T02:12:48.152Z,93.00
2023-05-14T02:15:15.843Z,92.90
2023-05-14T02:17:43.639Z,92.70
2023-05-14T02:20:12.807Z,92.90
2023-05-14T02:22:42.141Z,92.90
2023-05-14T02:25:11.055Z,92.90
2023-05-14T02:27:38.770Z,92.60
2023-05-14T02:30:09.689Z,92.30
2023-05-14T02:32:37.969Z,92.50
2023-05-14T02:35:06.698Z,92.40
2023-05-14T02:37:34.609Z,92.20
2023-05-14T02:40:02.537Z,92.50
2023-05-14T02:42:30.360Z,93.40
2023-05-14T02:44:58.064Z,94.10
2023-05-14T02:47:27.202Z,95.10
2023-05-14T02:49:55.015Z,96.70
2023-05-14T02:52:22.896Z,96.10
2023-05-14T02:54:50.617Z,94.30
2023-05-14T02:57:18.304Z,95.50
2023-05-14T02:59:46.029Z,96.60
2023-05-14T03:02:14.305Z,96.00
2023-05-14T03:04:44.047Z,98.60
2023-05-14T03:07:11.853Z,98.50
2023-05-14T03:09:39.563Z,99.60
2023-05-14T03:12:08.735Z,99.90
2023-05-14T03:14:36.534Z,99.90
2023-05-14T03:17:04.463Z,99.90
2023-05-14T03:19:32.341Z,99.90
2023-05-14T03:22:01.531Z,99.90
2023-05-14T03:24:29.320Z,99.90
2023-05-14T03:26:57.018Z,99.90
2023-05-14T03:29:24.708Z,99.90
2023-05-14T03:31:52.942Z,99.90
2023-05-14T03:34:20.779Z,99.90
2023-05-14T03:36:48.516Z,99.90
2023-05-14T03:39:19.626Z,99.90
2023-05-14T03:41:47.400Z,99.90
2023-05-14T03:44:15.082Z,99.90
2023-05-14T03:46:42.799Z,99.90
2023-05-14T03:49:10.676Z,99.90
2023-05-14T03:51:38.595Z,99.90
2023-05-14T03:54:06.637Z,99.90
2023-05-14T03:56:35.704Z,99.90
2023-05-14T03:59:03.419Z,99.90
2023-05-14T04:01:31.168Z,99.90
2023-05-14T04:03:59.021Z,99.90
2023-05-14T04:06:26.804Z,99.90
2023-05-14T04:08:54.594Z,99.90
2023-05-14T04:11:23.502Z,99.90
2023-05-14T04:13:52.559Z,99.90
2023-05-14T04:16:20.304Z,99.90
2023-05-14T04:18:48.105Z,99.90
2023-05-14T04:21:15.838Z,99.90
2023-05-14T04:23:43.550Z,99.90
2023-05-14T04:26:11.276Z,99.90
2023-05-14T04:28:39.037Z,99.90
2023-05-14T04:31:08.193Z,99.90
2023-05-14T04:33:35.968Z,99.90
2023-05-14T04:36:05.041Z,99.90
2023-05-14T04:38:32.796Z,99.90
2023-05-14T04:41:00.496Z,99.90
2023-05-14T04:43:28.230Z,99.90
2023-05-14T04:45:56.085Z,99.90
2023-05-14T04:48:25.294Z,99.90
2023-05-14T04:50:53.154Z,99.10
2023-05-14T04:53:20.951Z,99.00
2023-05-14T04:55:48.641Z,99.40
2023-05-14T04:58:16.380Z,99.40
2023-05-14T05:00:45.312Z,98.90
2023-05-14T05:03:13.187Z,98.60
2023-05-14T05:05:42.499Z,97.50
2023-05-14T05:08:11.260Z,97.50
2023-05-14T05:10:39.021Z,97.00
2023-05-14T05:13:06.777Z,96.70
2023-05-14T05:15:34.572Z,96.20
2023-05-14T05:18:02.392Z,95.60
2023-05-14T05:20:30.185Z,95.20
2023-05-14T05:22:59.464Z,95.40
2023-05-14T05:25:27.719Z,95.00
2023-05-14T05:27:55.501Z,94.30
2023-05-14T05:30:23.476Z,93.70
2023-05-14T05:32:51.706Z,93.00
2023-05-14T05:35:19.626Z,92.80
2023-05-14T05:37:47.354Z,92.50
2023-05-14T05:40:16.908Z,92.10
2023-05-14T05:42:44.590Z,91.70
2023-05-14T05:45:12.485Z,91.80
2023-05-14T05:47:40.258Z,91.60
2023-05-14T05:50:09.609Z,91.60
2023-05-14T05:52:37.427Z,91.50
2023-05-14T05:55:05.861Z,91.00
2023-05-14T05:57:34.949Z,90.90
2023-05-14T06:00:09.855Z,90.80
2023-05-14T06:02:37.806Z,91.20
2023-05-14T06:05:06.879Z,91.70
2023-05-14T06:07:34.668Z,91.60
2023-05-14T06:10:02.684Z,91.70
2023-05-14T06:12:30.473Z,91.60
2023-05-14T06:14:59.670Z,91.70
2023-05-14T06:17:27.834Z,91.90
2023-05-14T06:19:55.667Z,91.20
2023-05-14T06:22:23.383Z,90.40
2023-05-14T06:24:51.093Z,89.90
2023-05-14T06:27:18.827Z,89.10
2023-05-14T06:29:46.577Z,87.30
2023-05-14T06:32:15.939Z,84.80
2023-05-14T06:34:43.927Z,82.50
2023-05-14T06:37:12.286Z,79.70
2023-05-14T06:39:44.028Z,73.60
2023-05-14T06:42:11.813Z,62.20
2023-05-14T06:44:39.531Z,53.00
2023-05-14T06:47:08.378Z,48.20
2023-05-14T06:49:37.745Z,43.70
2023-05-14T06:52:06.217Z,41.70
2023-05-14T06:54:34.164Z,40.10
2023-05-14T06:57:01.916Z,39.90
2023-05-14T06:59:29.693Z,39.90
2023-05-14T07:01:57.591Z,38.20
2023-05-14T07:04:25.361Z,37.20
2023-05-14T07:06:54.493Z,36.90
2023-05-14T07:09:22.441Z,36.60
2023-05-14T07:11:50.370Z,36.20
2023-05-14T07:14:18.165Z,35.40
2023-05-14T07:16:46.990Z,35.70
2023-05-14T07:19:15.041Z,35.70
2023-05-14T07:21:42.885Z,35.80
2023-05-14T07:24:11.961Z,35.50
2023-05-14T07:26:40.150Z,34.40
2023-05-14T07:29:08.374Z,34.00
2023-05-14T07:31:36.284Z,34.60
2023-05-14T07:34:04.182Z,34.60
2023-05-14T07:36:31.979Z,34.70
2023-05-14T07:38:59.766Z,34.40
2023-05-14T07:41:28.885Z,34.00
2023-05-14T07:43:56.606Z,34.10
2023-05-14T07:46:25.641Z,33.60
2023-05-14T07:48:53.358Z,33.30
2023-05-14T07:51:21.120Z,33.40
2023-05-14T07:53:48.915Z,33.00
2023-05-14T07:56:16.621Z,33.70
2023-05-14T07:58:46.063Z,38.00
2023-05-14T08:01:16.376Z,42.00
2023-05-14T08:03:45.006Z,41.70
2023-05-14T08:06:14.178Z,39.00
2023-05-14T08:08:42.878Z,36.70
2023-05-14T08:11:11.971Z,35.10
2023-05-14T08:13:41.838Z,33.50
2023-05-14T08:16:12.634Z,33.20
2023-05-14T08:18:42.388Z,32.60
2023-05-14T08:21:12.258Z,32.90
2023-05-14T08:23:41.925Z,31.90
2023-05-14T08:26:11.643Z,31.20
2023-05-14T08:28:42.160Z,30.70
2023-05-14T08:31:14.995Z,31.70
2023-05-14T08:33:44.885Z,31.70
2023-05-14T08:36:14.555Z,31.30
2023-05-14T08:38:44.744Z,31.20
2023-05-14T08:41:17.029Z,31.90
2023-05-14T08:43:54.157Z,35.10
2023-05-14T08:46:26.001Z,37.50
2023-05-14T08:48:59.861Z,40.00
2023-05-14T08:51:29.017Z,42.50
2023-05-14T08:54:01.200Z,45.20
2023-05-14T08:56:33.691Z,45.80
2023-05-14T08:59:01.670Z,46.60
2023-05-14T09:01:32.054Z,46.80
2023-05-14T09:04:01.372Z,48.50
2023-05-14T09:06:30.182Z,49.50
2023-05-14T09:08:57.969Z,50.00
2023-05-14T09:11:25.698Z,50.30
2023-05-14T09:13:53.566Z,50.90
2023-05-14T09:16:22.158Z,51.00
2023-05-14T09:18:52.643Z,52.00
2023-05-14T09:21:20.921Z,52.70
2023-05-14T09:23:49.725Z,53.10
2023-05-14T09:26:19.248Z,53.80
2023-05-14T09:28:47.313Z,53.00
2023-05-14T09:31:15.137Z,52.50
2023-05-14T09:33:42.954Z,53.00
2023-05-14T09:36:12.057Z,53.30
2023-05-14T09:38:39.820Z,52.80
2023-05-14T09:41:07.609Z,52.10
2023-05-14T09:43:35.336Z,51.50
2023-05-14T09:46:03.093Z,50.40
2023-05-14T09:48:30.938Z,49.60
2023-05-14T09:50:58.655Z,48.50
2023-05-14T09:53:27.901Z,48.20
2023-05-14T09:55:55.749Z,48.50
2023-05-14T09:58:23.547Z,48.30
2023-05-14T10:00:52.748Z,47.90
2023-05-14T10:03:23.771Z,48.80
2023-05-14T10:05:52.065Z,49.30
2023-05-14T10:08:23.211Z,50.10
2023-05-14T10:10:54.587Z,50.70
2023-05-14T10:13:25.196Z,51.90
2023-05-14T10:16:01.186Z,51.50
2023-05-14T10:18:32.695Z,50.90
2023-05-14T10:21:06.174Z,51.60
2023-05-14T10:23:34.601Z,51.90
2023-05-14T10:26:04.230Z,52.00
2023-05-14T10:28:33.190Z,51.50
2023-05-14T10:31:01.320Z,51.70
2023-05-14T10:33:29.198Z,51.80
2023-05-14T10:36:00.559Z,51.60
2023-05-14T10:38:29.323Z,51.40
2023-05-14T10:41:05.924Z,50.90
2023-05-14T10:43:38.374Z,52.00
2023-05-14T10:46:06.866Z,51.90
2023-05-14T10:48:35.193Z,51.40
2023-05-14T10:51:03.213Z,51.40
2023-05-14T10:53:35.521Z,52.00
2023-05-14T10:56:07.097Z,50.80
2023-05-14T10:58:38.028Z,51.00
2023-05-14T11:01:07.663Z,49.60
2023-05-14T11:03:42.727Z,49.40
2023-05-14T11:06:13.030Z,49.30
2023-05-14T11:08:41.654Z,49.50
2023-05-14T11:11:11.586Z,49.10
2023-05-14T11:13:39.592Z,49.00
2023-05-14T11:18:38.678Z,47.60
2023-05-14T11:21:06.835Z,47.40
2023-05-14T11:23:34.769Z,47.20
2023-05-14T11:26:02.906Z,47.10
2023-05-14T11:28:31.992Z,46.70
2023-05-14T11:31:00.097Z,47.00
2023-05-14T11:33:29.610Z,47.20
2023-05-14T11:35:57.419Z,48.30
2023-05-14T11:38:25.345Z,48.40
2023-05-14T11:40:54.160Z,47.70
2023-05-14T11:43:23.737Z,48.50
2023-05-14T11:45:54.454Z,47.20
2023-05-14T11:48:23.185Z,47.90
2023-05-14T11:50:52.390Z,48.70
2023-05-14T11:53:20.862Z,48.70
2023-05-14T11:55:49.148Z,49.30
2023-05-14T11:58:18.854Z,48.90
2023-05-14T12:00:47.361Z,49.00
2023-05-14T12:03:16.801Z,48.90
2023-05-14T12:05:56.591Z,48.80
2023-05-14T12:08:27.089Z,48.00
2023-05-14T12:10:54.927Z,48.10
2023-05-14T12:13:22.961Z,47.30
2023-05-14T12:15:56.203Z,46.50
2023-05-14T12:18:26.355Z,46.10
2023-05-14T12:20:54.267Z,45.50
2023-05-14T12:23:26.570Z,45.30
2023-05-14T12:25:54.401Z,44.70
2023-05-14T12:28:24.350Z,44.00
2023-05-14T12:30:57.992Z,44.80
2023-05-14T12:33:28.438Z,45.10
2023-05-14T12:35:58.936Z,44.50
2023-05-14T12:38:28.431Z,45.00
2023-05-14T12:40:56.195Z,45.40
2023-05-14T12:43:23.944Z,44.40
2023-05-14T12:45:51.661Z,45.00
2023-05-14T12:48:19.421Z,45.90
2023-05-14T12:50:48.705Z,45.90
2023-05-14T12:53:16.724Z,45.90
2023-05-14T12:55:44.496Z,45.90
2023-05-14T12:58:12.217Z,45.70
2023-05-14T13:00:39.965Z,45.40
2023-05-14T13:03:07.740Z,45.80
2023-05-14T13:05:35.700Z,46.30
2023-05-14T13:08:04.868Z,46.80
2023-05-14T13:10:32.623Z,46.60
2023-05-14T13:13:01.987Z,46.50
2023-05-14T13:15:31.477Z,47.70
2023-05-14T13:17:59.276Z,49.00
2023-05-14T13:20:27.423Z,48.70
2023-05-14T13:22:55.350Z,48.80
2023-05-14T13:25:24.844Z,49.10
2023-05-14T13:27:52.766Z,49.10
2023-05-14T13:30:20.850Z,49.40
2023-05-14T13:32:48.687Z,49.20
2023-05-14T13:35:16.488Z,49.10
2023-05-14T13:37:44.710Z,49.50
2023-05-14T13:40:13.288Z,48.90
2023-05-14T13:42:42.398Z,48.50
2023-05-14T13:45:11.675Z,48.80
2023-05-14T13:47:40.277Z,49.70
2023-05-14T13:50:09.026Z,50.80
2023-05-14T13:52:37.733Z,50.70
2023-05-14T13:55:06.325Z,50.30
2023-05-14T13:57:34.069Z,50.40
2023-05-14T14:00:03.215Z,51.50
2023-05-14T14:02:31.854Z,51.10
2023-05-14T14:05:00.607Z,50.90
2023-05-14T14:07:28.384Z,50.40
2023-05-14T14:09:56.130Z,49.30
2023-05-14T14:12:23.909Z,48.80
2023-05-14T14:14:52.195Z,48.40
2023-05-14T14:17:21.298Z,49.30
2023-05-14T14:19:48.972Z,49.50
2023-05-14T14:22:17.288Z,48.10
2023-05-14T14:24:45.074Z,48.00
2023-05-14T14:27:12.946Z,48.00
2023-05-14T14:29:40.685Z,47.80
2023-05-14T14:32:08.871Z,47.80
2023-05-14T14:34:38.027Z,48.50
2023-05-14T14:37:06.149Z,48.20
2023-05-14T14:39:33.858Z,48.50
2023-05-14T14:42:01.774Z,47.80
2023-05-14T14:44:29.497Z,46.90
2023-05-14T14:46:57.209Z,46.50
2023-05-14T14:49:24.986Z,46.70
2023-05-14T14:51:54.339Z,46.40
2023-05-14T14:54:22.070Z,46.80
2023-05-14T14:56:52.278Z,46.90
2023-05-14T14:59:20.016Z,47.80
2023-05-14T15:01:47.789Z,47.00
2023-05-14T15:04:15.604Z,47.60
2023-05-14T15:06:43.367Z,47.50
2023-05-14T15:09:12.457Z,47.10
2023-05-14T15:11:40.262Z,46.50
2023-05-14T15:14:08.136Z,46.00
2023-05-14T15:16:36.003Z,46.60
2023-05-14T15:19:03.869Z,47.40
2023-05-14T15:21:31.994Z,46.90
2023-05-14T15:23:59.701Z,47.10
2023-05-14T15:26:28.779Z,46.80
2023-05-14T15:28:57.781Z,47.30
2023-05-14T15:31:25.931Z,46.60
2023-05-14T15:33:55.921Z,45.60
2023-05-14T15:36:23.685Z,46.20
2023-05-14T15:38:51.420Z,46.50
2023-05-14T15:41:19.136Z,47.00
2023-05-14T15:43:48.186Z,46.80
2023-05-14T15:46:15.953Z,46.50
2023-05-14T15:48:43.700Z,45.60
2023-05-14T15:51:11.437Z,45.40
2023-05-14T15:53:39.235Z,46.10
2023-05-14T15:56:07.960Z,46.50
2023-05-14T15:58:35.694Z,45.80
2023-05-14T16:01:04.833Z,46.00
2023-05-14T16:03:32.682Z,45.90
2023-05-14T16:06:00.719Z,46.80
2023-05-14T16:08:28.486Z,47.70
2023-05-14T16:10:56.178Z,48.30
2023-05-14T16:13:23.958Z,47.70
2023-05-14T16:15:52.021Z,47.60
2023-05-14T16:18:22.018Z,48.20
2023-05-14T16:20:49.805Z,48.30
2023-05-14T16:23:17.887Z,48.60
2023-05-14T16:25:45.645Z,48.80
2023-05-14T16:28:13.916Z,49.10
2023-05-14T16:30:41.650Z,49.30
2023-05-14T16:33:09.369Z,48.30
2023-05-14T16:35:39.240Z,48.20
2023-05-14T16:38:06.924Z,48.50
2023-05-14T16:40:34.752Z,48.60
2023-05-14T16:43:02.469Z,48.00
2023-05-14T16:45:32.560Z,47.80
2023-05-14T16:48:01.095Z,48.40
2023-05-14T16:50:28.884Z,48.20
2023-05-14T16:52:57.989Z,49.00
2023-05-14T16:55:26.440Z,49.10
2023-05-14T16:57:54.260Z,49.50
2023-05-14T17:00:22.124Z,49.80
2023-05-14T17:02:52.059Z,49.30
2023-05-14T17:05:19.860Z,49.30
2023-05-14T17:07:47.785Z,49.60
2023-05-14T17:10:16.958Z,49.20
2023-05-14T17:12:44.833Z,48.80
2023-05-14T17:15:12.989Z,48.60
2023-05-14T17:17:40.820Z,49.20
2023-05-14T17:20:09.506Z,48.90
2023-05-14T17:22:37.407Z,48.80
2023-05-14T17:25:06.126Z,49.20
2023-05-14T17:27:36.075Z,49.40
2023-05-14T17:30:04.992Z,49.20
2023-05-14T17:32:33.002Z,49.10
2023-05-14T17:35:00.761Z,49.30
2023-05-14T17:37:28.599Z,49.30
2023-05-14T17:39:56.330Z,49.70
2023-05-14T17:42:24.037Z,49.70
2023-05-14T17:44:53.700Z,50.10
2023-05-14T17:47:22.126Z,50.50
2023-05-14T17:49:50.805Z,51.40
2023-05-14T17:52:19.013Z,51.10
2023-05-14T17:54:46.830Z,51.00
2023-05-14T17:57:14.607Z,51.30
2023-05-14T17:59:42.360Z,52.10
2023-05-14T18:02:11.378Z,52.20
2023-05-14T18:04:39.067Z,52.20
2023-05-14T18:07:06.832Z,52.00
2023-05-14T18:09:34.642Z,52.80
2023-05-14T18:12:02.342Z,53.20
2023-05-14T18:14:30.042Z,53.40
2023-05-14T18:16:57.865Z,54.30
2023-05-14T18:19:26.999Z,54.60
2023-05-14T18:21:55.395Z,54.80
2023-05-14T18:24:23.210Z,55.20
2023-05-14T18:26:51.028Z,55.30
2023-05-14T18:29:18.738Z,55.30
2023-05-14T18:31:46.498Z,55.60
2023-05-14T18:34:14.376Z,55.70
2023-05-14T18:36:43.778Z,56.40
2023-05-14T18:39:11.503Z,55.80
2023-05-14T18:41:39.222Z,56.10
2023-05-14T18:44:06.965Z,56.10
2023-05-14T18:46:35.011Z,55.90
2023-05-14T18:49:03.079Z,56.30
2023-05-14T18:51:30.799Z,57.60
2023-05-14T18:54:00.149Z,57.00
2023-05-14T18:56:28.092Z,56.80
2023-05-14T18:58:55.925Z,56.50
2023-05-14T19:01:25.420Z,57.10
2023-05-14T19:03:53.624Z,57.30
2023-05-14T19:06:21.491Z,57.30
2023-05-14T19:08:49.186Z,56.80
2023-05-14T19:11:18.650Z,56.90
2023-05-14T19:13:47.821Z,56.20
2023-05-14T19:16:15.610Z,56.10
2023-05-14T19:18:43.610Z,57.00
2023-05-14T19:21:11.454Z,57.00
2023-05-14T19:23:39.375Z,56.70
2023-05-14T19:26:07.562Z,56.50
2023-05-14T19:28:37.877Z,59.00
2023-05-14T19:31:05.804Z,66.00
2023-05-14T19:33:33.756Z,71.90
2023-05-14T19:36:01.815Z,69.60
2023-05-14T19:38:29.620Z,72.60
2023-05-14T19:40:57.755Z,72.30
2023-05-14T19:43:26.013Z,73.20
2023-05-14T19:45:55.179Z,73.20
2023-05-14T19:48:22.930Z,72.20
2023-05-14T19:50:51.986Z,74.40
2023-05-14T19:53:21.256Z,78.00
2023-05-14T19:55:49.159Z,80.40
2023-05-14T19:58:18.053Z,82.10
2023-05-14T20:00:47.157Z,80.80
2023-05-14T20:03:16.346Z,79.80
2023-05-14T20:05:46.035Z,81.80
2023-05-14T20:08:14.261Z,90.60
2023-05-14T20:10:42.455Z,91.80
2023-05-14T20:13:10.205Z,92.50
2023-05-14T20:15:38.080Z,93.40
2023-05-14T20:18:06.237Z,94.20
2023-05-14T20:20:35.840Z,93.90
2023-05-14T20:23:03.707Z,94.10
2023-05-14T20:25:33.221Z,94.40
2023-05-14T20:28:01.482Z,95.20
2023-05-14T20:30:29.531Z,96.50
2023-05-14T20:32:57.601Z,95.20
2023-05-14T20:35:25.861Z,95.30
2023-05-14T20:37:55.531Z,94.60
2023-05-14T20:40:23.564Z,95.30
2023-05-14T20:42:52.078Z,94.50
2023-05-14T20:45:20.010Z,94.10
2023-05-14T20:47:47.848Z,93.20
2023-05-14T20:50:15.622Z,93.30
2023-05-14T20:52:43.573Z,93.10
2023-05-14T20:55:13.203Z,93.10
2023-05-14T20:57:41.142Z,92.80
2023-05-14T21:00:13.197Z,93.20
2023-05-14T21:02:41.260Z,93.30
2023-05-14T21:05:09.509Z,91.90
2023-05-14T21:07:37.498Z,91.70
2023-05-14T21:10:05.910Z,90.80
2023-05-14T21:12:35.083Z,90.90
2023-05-14T21:15:02.852Z,90.90
2023-05-14T21:17:30.685Z,91.30
2023-05-14T21:19:58.491Z,91.60
2023-05-14T21:22:27.425Z,91.40
2023-05-14T21:24:56.007Z,91.30
2023-05-14T21:27:23.940Z,91.00
2023-05-14T21:29:53.167Z,91.10
2023-05-14T21:32:22.327Z,90.70
2023-05-14T21:34:50.103Z,90.40
2023-05-14T21:37:17.893Z,90.70
2023-05-14T21:39:45.826Z,90.80
2023-05-14T21:42:13.849Z,91.30
2023-05-14T21:44:41.591Z,91.70
2023-05-14T21:47:11.398Z,91.70
2023-05-14T21:49:39.289Z,91.80
2023-05-14T21:52:07.511Z,91.80
2023-05-14T21:54:35.290Z,92.00
2023-05-14T21:57:03.304Z,91.70
2023-05-14T21:59:31.016Z,91.50
2023-05-14T22:04:30.830Z,92.60
2023-05-14T22:06:58.550Z,92.40
2023-05-14T22:09:26.386Z,92.60
2023-05-14T22:11:54.102Z,93.10
2023-05-14T22:14:21.811Z,92.70
2023-05-14T22:16:49.801Z,92.90
2023-05-14T22:19:17.689Z,92.80
2023-05-14T22:21:46.864Z,92.80
2023-05-14T22:24:14.649Z,93.30
2023-05-14T22:26:42.478Z,94.30
2023-05-14T22:29:10.240Z,94.60
2023-05-14T22:31:38.133Z,95.30
2023-05-14T22:34:05.903Z,96.00
2023-05-14T22:36:33.632Z,97.20
2023-05-14T22:39:03.434Z,97.90
2023-05-14T22:41:31.264Z,98.20
2023-05-14T22:43:58.992Z,98.50
2023-05-14T22:46:26.873Z,98.90
2023-05-14T22:48:55.398Z,99.30
2023-05-14T22:51:23.115Z,99.50
2023-05-14T22:53:50.859Z,99.90
2023-05-14T22:56:21.648Z,99.90
2023-05-14T22:58:49.385Z,99.90
2023-05-14T23:01:17.192Z,99.90
2023-05-14T23:03:44.960Z,99.90
2023-05-14T23:06:14.300Z,99.40
2023-05-14T23:08:42.051Z,98.80
2023-05-14T23:11:09.815Z,99.50
2023-05-14T23:13:38.979Z,99.90
2023-05-14T23:16:06.907Z,99.90
2023-05-14T23:18:34.907Z,99.90
2023-05-14T23:21:02.765Z,99.90
2023-05-14T23:23:30.478Z,99.90
2023-05-14T23:25:58.233Z,99.90
2023-05-14T23:28:26.037Z,99.90
2023-05-14T23:30:55.065Z,99.90
2023-05-14T23:33:22.774Z,99.90
2023-05-14T23:35:50.633Z,99.90
2023-05-14T23:38:18.540Z,99.90
2023-05-14T23:40:46.342Z,99.90
2023-05-14T23:43:14.914Z,99.90
2023-05-14T23:45:43.044Z,99.90
2023-05-14T23:48:12.130Z,99.90
2023-05-14T23:50:39.849Z,99.90
2023-05-14T23:53:07.781Z,99.90
2023-05-14T23:55:35.779Z,99.90
2023-05-14T23:58:03.845Z,99.90
